createdAt,value
2022-12-09T00:02:04.128Z,16.53
2022-12-09T00:04:33.044Z,16.63
2022-12-09T00:07:01.732Z,16.47
2022-12-09T00:09:29.959Z,15.43
2022-12-09T00:11:59.753Z,16.83
2022-12-09T00:14:28.029Z,15.83
2022-12-09T00:16:56.753Z,16.30
2022-12-09T00:19:25.069Z,15.40
2022-12-09T00:21:53.413Z,15.23
2022-12-09T00:24:21.863Z,14.80
2022-12-09T00:26:50.475Z,15.03
2022-12-09T00:29:20.507Z,16.07
2022-12-09T00:31:48.983Z,15.63
2022-12-09T00:34:17.441Z,15.17
2022-12-09T00:36:45.709Z,15.40
2022-12-09T00:39:13.931Z,15.00
2022-12-09T00:41:42.252Z,14.50
2022-12-09T00:44:11.402Z,14.97
2022-12-09T00:46:41.217Z,17.07
2022-12-09T00:49:09.729Z,15.73
2022-12-09T00:51:38.606Z,17.83
2022-12-09T00:54:07.034Z,15.90
2022-12-09T00:56:35.575Z,16.63
2022-12-09T00:59:04.114Z,15.70
2022-12-09T01:01:32.945Z,15.37
2022-12-09T01:04:03.516Z,16.97
2022-12-09T01:06:32.689Z,15.83
2022-12-09T01:09:01.324Z,17.83
2022-12-09T01:11:31.113Z,15.03
2022-12-09T01:14:01.114Z,15.93
2022-12-09T01:16:31.868Z,16.50
2022-12-09T01:19:03.782Z,16.90
2022-12-09T01:21:33.859Z,16.20
2022-12-09T01:24:02.231Z,15.73
2022-12-09T01:26:30.602Z,15.73
2022-12-09T01:28:58.808Z,17.03
2022-12-09T01:31:27.440Z,16.93
2022-12-09T01:33:57.607Z,15.17
2022-12-09T01:36:30.531Z,15.80
2022-12-09T01:39:00.305Z,16.00
2022-12-09T01:41:29.530Z,15.13
2022-12-09T01:44:16.439Z,15.70
2022-12-09T01:46:45.452Z,16.67
2022-12-09T01:49:18.313Z,15.93
2022-12-09T01:51:55.856Z,15.30
2022-12-09T01:54:24.554Z,15.80
2022-12-09T01:56:55.272Z,14.47
2022-12-09T01:59:24.789Z,16.43
2022-12-09T02:01:58.786Z,14.43
2022-12-09T02:04:29.867Z,15.50
2022-12-09T02:07:03.354Z,14.70
2022-12-09T02:09:32.784Z,15.13
2022-12-09T02:12:13.181Z,14.10
2022-12-09T02:14:44.742Z,15.30
2022-12-09T02:17:28.243Z,14.83
2022-12-09T02:20:09.505Z,14.27
2022-12-09T02:22:44.625Z,14.80
2022-12-09T02:25:27.114Z,14.87
2022-12-09T02:28:20.016Z,13.63
2022-12-09T02:30:59.973Z,14.23
2022-12-09T02:33:41.336Z,13.80
2022-12-09T02:36:18.129Z,14.67
2022-12-09T02:38:49.972Z,14.30
2022-12-09T02:41:22.610Z,14.10
2022-12-09T02:43:56.045Z,14.70
2022-12-09T02:46:30.392Z,15.57
2022-12-09T02:49:01.023Z,14.97
2022-12-09T02:51:36.200Z,15.70
2022-12-09T02:54:09.499Z,15.87
2022-12-09T02:56:41.683Z,15.27
2022-12-09T02:59:10.769Z,15.07
2022-12-09T03:01:45.914Z,15.10
2022-12-09T03:04:19.846Z,15.33
2022-12-09T03:06:53.768Z,14.47
2022-12-09T03:09:25.823Z,15.70
2022-12-09T03:11:56.303Z,14.90
2022-12-09T03:14:30.163Z,15.87
2022-12-09T03:17:04.111Z,14.30
2022-12-09T03:19:38.586Z,13.67
2022-12-09T03:22:12.460Z,14.37
2022-12-09T03:24:46.105Z,14.63
2022-12-09T03:27:20.457Z,14.17
2022-12-09T03:29:50.979Z,14.93
2022-12-09T03:32:22.286Z,14.77
2022-12-09T03:34:52.256Z,14.43
2022-12-09T03:37:23.165Z,12.90
2022-12-09T03:39:53.070Z,13.17
2022-12-09T03:42:24.588Z,13.43
2022-12-09T03:44:56.761Z,13.30
2022-12-09T03:47:25.354Z,15.27
2022-12-09T03:49:54.178Z,15.27
2022-12-09T03:52:28.801Z,15.43
2022-12-09T03:55:01.002Z,15.33
2022-12-09T03:57:30.381Z,15.60
2022-12-09T04:00:02.189Z,14.07
2022-12-09T04:02:40.955Z,14.37
2022-12-09T04:05:10.384Z,13.13
2022-12-09T04:07:40.316Z,14.00
2022-12-09T04:10:09.738Z,14.60
2022-12-09T04:12:40.283Z,13.40
2022-12-09T04:15:10.343Z,13.17
2022-12-09T04:17:38.785Z,14.10
2022-12-09T04:20:08.449Z,13.33
2022-12-09T04:22:37.534Z,14.53
2022-12-09T04:25:08.371Z,15.33
2022-12-09T04:27:36.898Z,15.30
2022-12-09T04:30:07.352Z,15.37
2022-12-09T04:32:36.020Z,14.47
2022-12-09T04:35:05.017Z,16.03
2022-12-09T04:37:33.665Z,15.37
2022-12-09T04:40:01.887Z,14.87
2022-12-09T04:42:31.532Z,15.97
2022-12-09T04:45:00.115Z,14.90
2022-12-09T04:47:28.659Z,14.83
2022-12-09T04:49:57.099Z,15.07
2022-12-09T04:52:25.693Z,14.17
2022-12-09T04:54:54.076Z,14.27
2022-12-09T04:57:22.394Z,14.63
2022-12-09T04:59:52.413Z,14.30
2022-12-09T05:02:20.721Z,16.67
2022-12-09T05:04:49.900Z,18.03
2022-12-09T05:07:18.694Z,18.33
2022-12-09T05:09:47.357Z,18.27
2022-12-09T05:12:15.825Z,18.63
2022-12-09T05:14:44.349Z,18.27
2022-12-09T05:17:14.398Z,17.40
2022-12-09T05:19:43.149Z,19.20
2022-12-09T05:22:11.760Z,16.27
2022-12-09T05:24:41.141Z,18.13
2022-12-09T05:27:09.832Z,19.13
2022-12-09T05:29:38.487Z,19.73
2022-12-09T05:32:07.821Z,20.73
2022-12-09T05:34:38.203Z,20.60
2022-12-09T05:37:07.103Z,20.63
2022-12-09T05:39:35.626Z,21.33
2022-12-09T05:42:04.207Z,20.00
2022-12-09T05:44:32.788Z,21.40
2022-12-09T05:47:01.478Z,21.27
2022-12-09T05:49:30.351Z,21.53
2022-12-09T05:52:00.330Z,20.80
2022-12-09T05:54:28.835Z,20.57
2022-12-09T05:56:58.218Z,20.83
2022-12-09T05:59:26.596Z,20.57
2022-12-09T06:01:55.097Z,21.77
2022-12-09T06:04:23.848Z,21.50
2022-12-09T06:06:52.836Z,21.50
2022-12-09T06:09:22.784Z,21.63
2022-12-09T06:11:51.373Z,20.47
2022-12-09T06:14:19.771Z,22.73
2022-12-09T06:16:48.253Z,21.07
2022-12-09T06:19:17.585Z,21.53
2022-12-09T06:21:46.671Z,23.90
2022-12-09T06:24:15.444Z,23.33
2022-12-09T06:26:45.453Z,23.47
2022-12-09T06:29:14.056Z,24.27
2022-12-09T06:31:42.846Z,23.80
2022-12-09T06:34:11.789Z,23.37
2022-12-09T06:36:40.561Z,23.67
2022-12-09T06:39:11.064Z,23.37
2022-12-09T06:41:41.529Z,25.20
2022-12-09T06:44:14.767Z,24.70
2022-12-09T06:46:48.674Z,25.23
2022-12-09T06:49:17.375Z,22.17
2022-12-09T06:51:46.380Z,25.63
2022-12-09T06:54:14.835Z,24.27
2022-12-09T06:56:43.198Z,21.83
2022-12-09T06:59:13.156Z,23.37
2022-12-09T07:01:41.893Z,24.80
2022-12-09T07:04:13.906Z,24.23
2022-12-09T07:06:43.718Z,24.40
2022-12-09T07:09:17.763Z,24.77
2022-12-09T07:11:47.392Z,23.70
2022-12-09T07:14:20.753Z,25.57
2022-12-09T07:16:49.722Z,24.23
2022-12-09T07:19:20.070Z,22.73
2022-12-09T07:21:50.200Z,23.07
2022-12-09T07:24:22.582Z,23.20
2022-12-09T07:26:51.408Z,23.13
2022-12-09T07:29:22.261Z,21.80
2022-12-09T07:31:51.338Z,23.13
2022-12-09T07:34:20.206Z,20.17
2022-12-09T07:36:48.840Z,23.87
2022-12-09T07:39:19.299Z,22.20
2022-12-09T07:41:49.145Z,26.53
2022-12-09T07:44:17.515Z,22.80
2022-12-09T07:46:47.398Z,23.63
2022-12-09T07:49:16.185Z,22.73
2022-12-09T07:51:45.362Z,22.10
2022-12-09T07:54:14.527Z,23.43
2022-12-09T07:56:42.987Z,22.77
2022-12-09T07:59:13.684Z,22.93
2022-12-09T08:01:42.855Z,23.30
2022-12-09T08:04:13.359Z,24.60
2022-12-09T08:06:42.535Z,22.13
2022-12-09T08:09:13.730Z,23.33
2022-12-09T08:11:42.702Z,22.83
2022-12-09T08:14:13.480Z,23.33
2022-12-09T08:16:43.982Z,22.17
2022-12-09T08:19:14.858Z,21.67
2022-12-09T08:21:46.314Z,22.07
2022-12-09T08:24:17.177Z,22.90
2022-12-09T08:26:45.932Z,22.80
2022-12-09T08:29:15.325Z,22.57
2022-12-09T08:31:45.162Z,22.10
2022-12-09T08:34:16.179Z,22.50
2022-12-09T08:36:45.280Z,22.30
2022-12-09T08:39:14.861Z,24.50
2022-12-09T08:41:44.695Z,25.13
2022-12-09T08:44:15.403Z,24.27
2022-12-09T08:46:45.767Z,23.67
2022-12-09T08:49:18.905Z,21.90
2022-12-09T08:51:48.395Z,22.13
2022-12-09T08:54:17.366Z,23.43
2022-12-09T08:56:47.599Z,21.50
2022-12-09T08:59:17.015Z,22.00
2022-12-09T09:01:45.918Z,20.70
2022-12-09T09:04:18.281Z,21.80
2022-12-09T09:06:50.172Z,21.73
2022-12-09T09:09:20.644Z,22.87
2022-12-09T09:11:50.230Z,22.53
2022-12-09T09:14:18.592Z,22.53
2022-12-09T09:16:47.262Z,21.13
2022-12-09T09:19:20.649Z,23.80
2022-12-09T09:21:49.961Z,21.60
2022-12-09T09:24:20.709Z,23.83
2022-12-09T09:26:50.319Z,22.97
2022-12-09T09:29:21.302Z,22.57
2022-12-09T09:31:54.647Z,22.47
2022-12-09T09:34:26.431Z,22.53
2022-12-09T09:36:55.777Z,24.10
2022-12-09T09:39:24.752Z,23.33
2022-12-09T09:41:54.727Z,22.87
2022-12-09T09:44:27.322Z,23.37
2022-12-09T09:46:57.520Z,25.73
2022-12-09T09:49:36.486Z,23.73
2022-12-09T09:52:09.771Z,22.33
2022-12-09T09:54:39.324Z,25.30
2022-12-09T09:57:15.832Z,21.77
2022-12-09T10:00:08.751Z,24.33
2022-12-09T10:02:58.261Z,20.90
2022-12-09T10:05:31.712Z,20.47
2022-12-09T10:08:14.767Z,21.17
2022-12-09T10:10:51.693Z,20.63
2022-12-09T10:13:35.437Z,23.10
2022-12-09T10:16:14.976Z,22.27
2022-12-09T10:19:05.707Z,23.40
2022-12-09T10:21:43.467Z,21.50
2022-12-09T10:24:29.689Z,22.83
2022-12-09T10:27:06.246Z,20.03
2022-12-09T10:29:49.916Z,20.83
2022-12-09T10:32:22.243Z,24.00
2022-12-09T10:34:50.754Z,22.80
2022-12-09T10:37:26.773Z,21.50
2022-12-09T10:40:01.554Z,23.47
2022-12-09T10:42:47.677Z,23.57
2022-12-09T10:45:16.392Z,21.07
2022-12-09T10:47:52.169Z,22.93
2022-12-09T10:50:32.677Z,22.00
2022-12-09T10:53:08.354Z,22.50
2022-12-09T10:55:39.685Z,19.97
2022-12-09T10:58:17.666Z,20.13
2022-12-09T11:01:00.615Z,20.87
2022-12-09T11:03:33.462Z,20.77
2022-12-09T11:06:12.665Z,20.47
2022-12-09T11:08:51.547Z,20.10
2022-12-09T11:11:21.697Z,22.37
2022-12-09T11:13:50.646Z,22.30
2022-12-09T11:16:28.867Z,22.00
2022-12-09T11:18:57.720Z,21.93
2022-12-09T11:21:35.084Z,21.50
2022-12-09T11:24:06.179Z,22.00
2022-12-09T11:26:39.331Z,20.37
2022-12-09T11:29:19.539Z,20.40
2022-12-09T11:31:49.171Z,20.57
2022-12-09T11:34:23.365Z,22.10
2022-12-09T11:36:54.672Z,21.43
2022-12-09T11:39:32.488Z,21.27
2022-12-09T11:42:17.472Z,21.03
2022-12-09T11:44:54.049Z,20.87
2022-12-09T11:47:29.122Z,19.27
2022-12-09T11:50:04.599Z,19.60
2022-12-09T11:52:33.310Z,22.20
2022-12-09T11:55:18.482Z,20.93
2022-12-09T11:57:56.615Z,22.50
2022-12-09T12:00:27.352Z,19.73
2022-12-09T12:03:04.964Z,19.77
2022-12-09T12:05:38.338Z,22.13
2022-12-09T12:08:15.831Z,21.17
2022-12-09T12:10:50.997Z,21.87
2022-12-09T12:13:24.676Z,21.63
2022-12-09T12:15:59.846Z,21.90
2022-12-09T12:18:37.700Z,21.30
2022-12-09T12:21:22.380Z,21.00
2022-12-09T12:24:24.295Z,22.53
2022-12-09T12:27:05.478Z,23.17
2022-12-09T12:29:45.876Z,23.50
2022-12-09T12:32:32.407Z,24.13
2022-12-09T12:35:15.435Z,24.50
2022-12-09T12:37:51.898Z,23.00
2022-12-09T12:40:31.197Z,23.37
2022-12-09T12:43:27.532Z,23.10
2022-12-09T12:46:19.248Z,23.30
2022-12-09T12:49:02.734Z,22.60
2022-12-09T12:51:37.770Z,24.83
2022-12-09T12:54:19.250Z,24.40
2022-12-09T12:56:55.242Z,23.73
2022-12-09T12:59:35.980Z,24.50
2022-12-09T13:02:21.954Z,22.13
2022-12-09T13:04:55.382Z,21.70
2022-12-09T13:07:31.648Z,24.23
2022-12-09T13:10:04.455Z,23.57
2022-12-09T13:12:56.825Z,23.27
2022-12-09T13:15:32.754Z,22.33
2022-12-09T13:18:07.829Z,23.07
2022-12-09T13:20:44.916Z,22.47
2022-12-09T13:23:31.964Z,25.50
2022-12-09T13:26:17.064Z,24.77
2022-12-09T13:28:52.525Z,23.40
2022-12-09T13:31:29.310Z,24.23
2022-12-09T13:34:07.245Z,23.90
2022-12-09T13:36:40.903Z,25.03
2022-12-09T13:39:11.883Z,23.07
2022-12-09T13:42:03.371Z,23.47
2022-12-09T13:44:35.631Z,24.93
2022-12-09T13:47:28.743Z,25.37
2022-12-09T13:50:02.284Z,24.30
2022-12-09T13:52:48.440Z,23.30
2022-12-09T13:55:34.566Z,24.97
2022-12-09T13:58:39.370Z,25.20
2022-12-09T14:01:17.154Z,23.67
2022-12-09T14:03:59.553Z,24.33
2022-12-09T14:06:31.592Z,24.13
2022-12-09T14:09:03.358Z,25.23
2022-12-09T14:11:50.039Z,24.83
2022-12-09T14:14:58.237Z,25.03
2022-12-09T14:18:02.427Z,22.50
2022-12-09T14:20:38.745Z,23.90
2022-12-09T14:23:24.900Z,23.57
2022-12-09T14:26:06.009Z,24.07
2022-12-09T14:28:53.468Z,27.40
2022-12-09T14:31:44.072Z,26.07
2022-12-09T14:34:37.273Z,24.77
2022-12-09T14:37:29.003Z,23.47
2022-12-09T14:40:17.671Z,25.73
2022-12-09T14:42:52.638Z,25.13
2022-12-09T14:45:31.051Z,22.77
2022-12-09T14:47:59.606Z,24.13
2022-12-09T14:50:29.999Z,24.00
2022-12-09T14:53:02.905Z,23.00
2022-12-09T14:55:33.693Z,22.40
2022-12-09T14:58:03.722Z,24.07
2022-12-09T15:00:37.700Z,24.93
2022-12-09T15:03:39.514Z,24.00
2022-12-09T15:06:13.450Z,20.73
2022-12-09T15:08:43.724Z,21.23
2022-12-09T15:11:16.340Z,20.87
2022-12-09T15:13:48.174Z,19.50
2022-12-09T15:16:19.311Z,20.23
2022-12-09T15:18:48.632Z,20.50
2022-12-09T15:21:27.525Z,20.47
2022-12-09T15:23:58.672Z,21.20
2022-12-09T15:26:29.355Z,19.97
2022-12-09T15:28:59.489Z,22.03
2022-12-09T15:31:29.446Z,21.57
2022-12-09T15:33:59.617Z,21.47
2022-12-09T15:36:31.840Z,20.73
2022-12-09T15:39:03.891Z,19.30
2022-12-09T15:41:53.717Z,19.43
2022-12-09T15:44:24.827Z,19.67
2022-12-09T15:46:56.720Z,20.23
2022-12-09T15:49:34.272Z,21.87
2022-12-09T15:52:05.537Z,20.53
2022-12-09T15:54:38.593Z,22.03
2022-12-09T15:57:11.784Z,20.43
2022-12-09T15:59:43.157Z,21.30
2022-12-09T16:02:15.386Z,21.63
2022-12-09T16:04:47.090Z,20.63
2022-12-09T16:07:18.117Z,21.07
2022-12-09T16:12:42.079Z,22.07
2022-12-09T16:15:13.022Z,22.97
2022-12-09T16:17:53.374Z,21.03
2022-12-09T16:20:24.631Z,21.80
2022-12-09T16:22:52.942Z,19.93
2022-12-09T16:25:24.430Z,22.13
2022-12-09T16:28:00.121Z,20.70
2022-12-09T16:30:30.996Z,20.87
2022-12-09T16:33:00.943Z,23.60
2022-12-09T16:35:34.883Z,22.83
2022-12-09T16:38:17.569Z,21.37
2022-12-09T16:41:01.058Z,22.93
2022-12-09T16:43:31.686Z,23.63
2022-12-09T16:46:01.507Z,22.70
2022-12-09T16:48:31.284Z,24.43
2022-12-09T16:51:07.362Z,22.23
2022-12-09T16:53:40.226Z,25.93
2022-12-09T16:56:19.982Z,23.37
2022-12-09T16:58:49.659Z,23.33
2022-12-09T17:01:19.519Z,26.87
2022-12-09T17:03:52.547Z,24.40
2022-12-09T17:06:21.909Z,25.27
2022-12-09T17:08:50.271Z,24.17
2022-12-09T17:11:21.516Z,23.47
2022-12-09T17:13:51.840Z,23.83
2022-12-09T17:16:22.287Z,27.27
2022-12-09T17:18:51.142Z,24.27
2022-12-09T17:21:19.922Z,23.17
2022-12-09T17:23:48.244Z,27.87
2022-12-09T17:26:19.086Z,26.63
2022-12-09T17:28:48.550Z,29.17
2022-12-09T17:31:20.694Z,24.83
2022-12-09T17:33:49.715Z,25.80
2022-12-09T17:36:18.971Z,27.30
2022-12-09T17:38:47.450Z,27.40
2022-12-09T17:41:19.933Z,31.50
2022-12-09T17:43:48.153Z,29.57
2022-12-09T17:46:18.138Z,29.47
2022-12-09T17:48:46.708Z,30.13
2022-12-09T17:51:17.878Z,31.53
2022-12-09T17:53:47.023Z,30.77
2022-12-09T17:56:17.883Z,28.50
2022-12-09T17:58:46.484Z,27.70
2022-12-09T18:01:16.939Z,31.10
2022-12-09T18:03:56.044Z,31.30
2022-12-09T18:06:25.559Z,31.63
2022-12-09T18:08:54.008Z,30.27
2022-12-09T18:11:22.690Z,29.07
2022-12-09T18:13:51.680Z,29.07
2022-12-09T18:16:20.590Z,30.13
2022-12-09T18:18:50.366Z,29.43
2022-12-09T18:21:19.675Z,30.87
2022-12-09T18:23:48.285Z,30.80
2022-12-09T18:26:18.405Z,30.27
2022-12-09T18:28:46.699Z,31.10
2022-12-09T18:31:17.227Z,30.30
2022-12-09T18:33:45.646Z,32.07
2022-12-09T18:36:16.814Z,32.07
2022-12-09T18:38:45.553Z,30.60
2022-12-09T18:41:14.606Z,28.33
2022-12-09T18:43:45.908Z,28.70
2022-12-09T18:46:15.955Z,29.10
2022-12-09T18:48:45.130Z,28.17
2022-12-09T18:51:18.728Z,29.83
2022-12-09T18:53:47.968Z,28.47
2022-12-09T18:56:17.335Z,28.93
2022-12-09T19:01:35.777Z,29.50
2022-12-09T19:04:06.485Z,30.20
2022-12-09T19:06:37.410Z,28.13
2022-12-09T19:09:09.261Z,27.10
2022-12-09T19:11:40.116Z,27.47
2022-12-09T19:14:09.514Z,28.37
2022-12-09T19:16:38.343Z,30.20
2022-12-09T19:19:10.425Z,29.10
2022-12-09T19:21:41.326Z,27.93
2022-12-09T19:24:14.032Z,30.07
2022-12-09T19:26:43.951Z,28.47
2022-12-09T19:29:13.606Z,27.63
2022-12-09T19:31:43.461Z,30.37
2022-12-09T19:34:14.660Z,29.17
2022-12-09T19:36:45.220Z,27.30
2022-12-09T19:39:14.413Z,29.03
2022-12-09T19:41:45.956Z,29.23
2022-12-09T19:44:31.183Z,28.73
2022-12-09T19:47:04.218Z,28.63
2022-12-09T19:49:33.283Z,30.47
2022-12-09T19:52:03.536Z,29.90
2022-12-09T19:54:32.394Z,29.17
2022-12-09T19:57:00.658Z,29.90
2022-12-09T19:59:29.409Z,29.23
2022-12-09T20:01:57.751Z,29.77
2022-12-09T20:07:18.314Z,32.47
2022-12-09T20:09:46.744Z,27.63
2022-12-09T20:12:14.998Z,29.70
2022-12-09T20:14:43.341Z,27.87
2022-12-09T20:17:11.992Z,28.47
2022-12-09T20:19:40.269Z,29.30
2022-12-09T20:22:08.509Z,29.53
2022-12-09T20:24:38.064Z,28.20
2022-12-09T20:27:07.230Z,30.33
2022-12-09T20:29:38.018Z,28.53
2022-12-09T20:32:08.384Z,30.30
2022-12-09T20:34:36.830Z,32.27
2022-12-09T20:37:07.319Z,29.57
2022-12-09T20:39:37.116Z,31.47
2022-12-09T20:42:06.543Z,29.47
2022-12-09T20:44:34.946Z,32.33
2022-12-09T20:47:03.245Z,31.37
2022-12-09T20:49:31.755Z,28.80
2022-12-09T20:52:00.235Z,30.10
2022-12-09T20:54:28.465Z,31.10
2022-12-09T20:56:58.267Z,30.43
2022-12-09T20:59:26.611Z,32.63
2022-12-09T21:01:55.957Z,30.27
2022-12-09T21:04:24.533Z,29.57
2022-12-09T21:06:52.960Z,30.73
2022-12-09T21:09:24.774Z,31.10
2022-12-09T21:11:53.015Z,30.97
2022-12-09T21:14:23.444Z,30.83
2022-12-09T21:16:53.177Z,29.47
2022-12-09T21:19:25.103Z,33.33
2022-12-09T21:21:54.510Z,29.07
2022-12-09T21:24:24.671Z,28.87
2022-12-09T21:26:55.487Z,32.03
2022-12-09T21:29:31.355Z,31.43
2022-12-09T21:32:01.286Z,32.40
2022-12-09T21:34:29.721Z,30.70
2022-12-09T21:36:58.022Z,29.93
2022-12-09T21:39:27.596Z,32.93
2022-12-09T21:41:55.876Z,32.00
2022-12-09T21:44:27.165Z,31.90
2022-12-09T21:46:55.514Z,29.83
2022-12-09T21:49:24.070Z,31.87
2022-12-09T21:51:52.439Z,31.93
2022-12-09T21:54:20.672Z,32.33
2022-12-09T21:56:48.917Z,35.13
2022-12-09T21:59:17.314Z,35.83
2022-12-09T22:01:47.032Z,42.03
2022-12-09T22:04:17.347Z,38.07
2022-12-09T22:06:46.761Z,38.60
2022-12-09T22:09:16.030Z,35.93
2022-12-09T22:11:44.544Z,36.17
2022-12-09T22:14:13.278Z,36.07
2022-12-09T22:16:43.776Z,37.67
2022-12-09T22:19:18.557Z,37.73
2022-12-09T22:21:47.354Z,36.30
2022-12-09T22:24:16.578Z,39.53
2022-12-09T22:26:45.266Z,38.33
2022-12-09T22:29:15.278Z,36.20
2022-12-09T22:31:47.515Z,39.17
2022-12-09T22:34:18.568Z,37.10
2022-12-09T22:36:47.704Z,40.53
2022-12-09T22:39:17.406Z,37.70
2022-12-09T22:41:46.206Z,39.03
2022-12-09T22:44:16.562Z,39.50
2022-12-09T22:46:45.549Z,37.87
2022-12-09T22:49:15.204Z,37.83
2022-12-09T22:51:46.012Z,37.73
2022-12-09T22:54:14.938Z,33.93
2022-12-09T22:56:44.003Z,34.33
2022-12-09T22:59:13.780Z,35.50
2022-12-09T23:01:42.280Z,33.07
2022-12-09T23:04:11.306Z,34.40
2022-12-09T23:06:40.898Z,33.60
2022-12-09T23:09:19.491Z,32.30
2022-12-09T23:11:48.237Z,29.53
2022-12-09T23:14:17.104Z,30.40
2022-12-09T23:16:46.955Z,27.70
2022-12-09T23:19:16.682Z,30.07
2022-12-09T23:21:45.020Z,29.27
2022-12-09T23:24:21.188Z,26.93
2022-12-09T23:26:53.014Z,27.37
2022-12-09T23:29:21.416Z,26.87
2022-12-09T23:31:50.018Z,26.27
2022-12-09T23:34:18.541Z,24.13
2022-12-09T23:36:47.283Z,30.40
2022-12-09T23:39:19.319Z,26.47
2022-12-09T23:41:47.798Z,23.97
2022-12-09T23:44:18.110Z,25.47
2022-12-09T23:46:46.891Z,24.27
2022-12-09T23:49:16.276Z,24.27
2022-12-09T23:51:45.195Z,24.10
2022-12-09T23:54:15.490Z,23.07
2022-12-09T23:56:49.724Z,26.23
2022-12-09T23:59:20.295Z,24.57
